Time;durP1;ratioP1;P1;durP2;ratioP2;P2;SDS_P1;SDS_P2;PMS_P1;PMS_P2;Temp;Humidity;BMP_temperature;BMP_pressure;BME280_temperature;BME280_humidity;BME280_pressure;Samples;Min_cycle;Max_cycle;Signal;HPM_P1;HPM_P2
2022/07/23 00:00:03;;;;;;;7.70;7.00;;;19.60;89.30;;;;;;5051009;28;20442;-59
2022/07/23 00:02:28;;;;;;;9.43;7.30;;;19.60;90.00;;;;;;5051933;28;20116;-58
2022/07/23 00:04:54;;;;;;;7.63;7.03;;;19.60;90.10;;;;;;5051090;28;20116;-58
2022/07/23 00:07:20;;;;;;;7.45;6.85;;;19.60;90.00;;;;;;5050135;28;20384;-58
2022/07/23 00:09:45;;;;;;;9.65;7.18;;;19.60;90.20;;;;;;5048858;28;20021;-58
2022/07/23 00:12:11;;;;;;;7.38;6.75;;;19.70;90.30;;;;;;5050921;28;20091;-59
2022/07/23 00:14:36;;;;;;;8.70;7.03;;;19.70;90.50;;;;;;5051293;28;20033;-59
2022/07/23 00:17:02;;;;;;;7.95;7.22;;;19.70;90.90;;;;;;5050782;28;20054;-59
2022/07/23 00:19:28;;;;;;;8.38;7.45;;;19.80;91.20;;;;;;5051093;28;20036;-59
2022/07/23 00:21:54;;;;;;;11.07;6.65;;;19.80;91.70;;;;;;5050288;28;20481;-59
2022/07/23 00:24:20;;;;;;;9.30;7.15;;;19.80;91.70;;;;;;5051158;28;20032;-60
2022/07/23 00:26:46;;;;;;;9.43;6.72;;;19.80;92.00;;;;;;5048472;28;20021;-60
2022/07/23 00:29:11;;;;;;;7.10;6.55;;;19.80;92.00;;;;;;5049882;28;20053;-58
2022/07/23 00:31:37;;;;;;;8.23;7.28;;;19.80;92.20;;;;;;5050474;28;20025;-58
2022/07/23 00:34:03;;;;;;;7.47;6.88;;;19.80;92.60;;;;;;5050325;28;20041;-57
2022/07/23 00:36:31;;;;;;;9.23;6.82;;;19.80;92.70;;;;;;5051185;28;20025;-58
2022/07/23 00:38:56;;;;;;;7.25;6.60;;;19.80;92.80;;;;;;5048527;28;20022;-60
2022/07/23 00:41:22;;;;;;;7.47;6.78;;;19.80;92.80;;;;;;5050459;28;20037;-59
2022/07/23 00:43:48;;;;;;;11.23;6.30;;;19.70;92.90;;;;;;5049771;28;20511;-58
2022/07/23 00:46:22;;;;;;;10.05;7.25;;;19.70;92.90;;;;;;5050577;28;20481;-58
2022/07/23 00:48:48;;;;;;;7.57;6.60;;;19.70;93.00;;;;;;5050302;28;20032;-60
2022/07/23 00:51:16;;;;;;;6.80;6.20;;;19.70;93.20;;;;;;5051403;28;20025;-59
2022/07/23 00:53:42;;;;;;;7.40;6.80;;;19.70;93.70;;;;;;5050609;28;20472;-59
2022/07/23 00:56:08;;;;;;;10.60;6.90;;;19.70;93.80;;;;;;5048675;28;20123;-59
2022/07/23 00:58:35;;;;;;;7.28;6.57;;;19.60;94.20;;;;;;5050682;28;20112;-59
2022/07/23 01:01:01;;;;;;;8.52;7.55;;;19.60;94.20;;;;;;5049437;28;20037;-59
2022/07/23 01:03:27;;;;;;;7.93;7.28;;;19.60;94.30;;;;;;5051109;28;20032;-59
2022/07/23 01:05:53;;;;;;;7.32;6.75;;;19.50;95.00;;;;;;5049499;28;20029;-58
2022/07/23 01:08:19;;;;;;;7.65;7.00;;;19.40;94.60;;;;;;5049258;28;20527;-60
2022/07/23 01:10:48;;;;;;;10.57;7.28;;;19.40;94.70;;;;;;5048889;28;20029;-59
2022/07/23 01:13:13;;;;;;;10.68;7.32;;;19.30;95.20;;;;;;5050232;28;20039;-60
2022/07/23 01:15:39;;;;;;;8.43;6.57;;;19.20;95.40;;;;;;5050189;28;20021;-60
2022/07/23 01:18:07;;;;;;;12.93;7.18;;;19.10;95.70;;;;;;5049795;28;20503;-59
2022/07/23 01:20:33;;;;;;;8.63;7.57;;;19.10;96.50;;;;;;5049063;28;20032;-60
2022/07/23 01:22:59;;;;;;;8.63;7.85;;;19.00;97.30;;;;;;5047986;28;20040;-59
2022/07/23 01:25:25;;;;;;;8.70;7.90;;;18.90;97.80;;;;;;5049705;28;20662;-58
2022/07/23 01:27:53;;;;;;;7.93;7.22;;;18.80;98.40;;;;;;5048999;28;20461;-58
2022/07/23 01:30:19;;;;;;;9.40;8.32;;;18.70;98.90;;;;;;5050266;28;20048;-59
2022/07/23 01:32:45;;;;;;;8.88;8.07;;;18.70;99.70;;;;;;5049736;28;20044;-59
2022/07/23 01:35:10;;;;;;;9.82;7.88;;;18.70;99.90;;;;;;5049847;28;20025;-58
2022/07/23 01:37:37;;;;;;;9.60;8.68;;;18.70;99.90;;;;;;5049235;28;20040;-59
2022/07/23 01:40:04;;;;;;;9.18;8.38;;;18.70;99.90;;;;;;5048794;28;20036;-59
2022/07/23 01:42:29;;;;;;;11.88;8.32;;;18.70;99.90;;;;;;5050229;28;20021;-58
2022/07/23 01:44:55;;;;;;;8.77;7.90;;;18.70;99.90;;;;;;5049361;28;20035;-59
2022/07/23 01:47:21;;;;;;;8.43;7.53;;;18.70;99.90;;;;;;5049324;28;20064;-59
2022/07/23 01:49:46;;;;;;;9.18;8.38;;;18.70;99.90;;;;;;5048349;28;20032;-58
2022/07/23 01:52:12;;;;;;;9.15;8.32;;;18.70;99.90;;;;;;5049328;28;20121;-59
2022/07/23 01:54:39;;;;;;;9.98;7.40;;;18.70;99.90;;;;;;5049313;28;20487;-59
2022/07/23 01:57:06;;;;;;;8.20;7.57;;;18.70;99.90;;;;;;5049267;28;20021;-59
2022/07/23 01:59:32;;;;;;;11.98;8.02;;;18.70;99.90;;;;;;5049403;28;20037;-59
2022/07/23 02:01:57;;;;;;;9.48;8.20;;;18.70;99.90;;;;;;5048441;28;20025;-58
2022/07/23 02:04:25;;;;;;;10.88;7.60;;;18.70;99.90;;;;;;5049071;28;20029;-59
2022/07/23 02:06:52;;;;;;;10.27;7.35;;;18.70;99.90;;;;;;5046050;28;20051;-60
2022/07/23 02:09:18;;;;;;;10.25;7.70;;;18.60;99.90;;;;;;5047980;28;20031;-58
2022/07/23 02:11:45;;;;;;;7.90;7.28;;;18.60;99.90;;;;;;5047887;28;20028;-58
2022/07/23 02:14:11;;;;;;;10.30;7.47;;;18.60;99.90;;;;;;5049171;28;20029;-59
2022/07/23 02:16:36;;;;;;;7.70;7.10;;;18.60;99.90;;;;;;5048332;28;20420;-60
2022/07/23 02:19:03;;;;;;;8.38;7.57;;;18.60;99.90;;;;;;5047002;28;20029;-58
2022/07/23 02:21:29;;;;;;;9.90;7.47;;;18.60;99.90;;;;;;5048579;28;20021;-60
2022/07/23 02:23:54;;;;;;;7.68;7.05;;;18.60;99.90;;;;;;5048113;28;20120;-58
2022/07/23 02:26:20;;;;;;;7.72;7.03;;;18.60;99.90;;;;;;5049329;28;20033;-59
2022/07/23 02:28:46;;;;;;;7.40;6.90;;;18.60;99.90;;;;;;5047464;28;20112;-58
2022/07/23 02:31:11;;;;;;;9.32;6.93;;;18.60;99.90;;;;;;5048916;28;20175;-59
2022/07/23 02:33:37;;;;;;;7.43;6.78;;;18.60;99.90;;;;;;5048815;28;20039;-59
2022/07/23 02:36:03;;;;;;;7.70;6.82;;;18.60;99.90;;;;;;5048183;28;20095;-59
2022/07/23 02:38:28;;;;;;;13.35;7.15;;;18.60;99.90;;;;;;5048479;28;20032;-60
2022/07/23 02:40:54;;;;;;;7.80;7.20;;;18.60;99.90;;;;;;5048069;28;20120;-58
2022/07/23 02:43:19;;;;;;;7.95;7.25;;;18.70;99.90;;;;;;5048703;28;20029;-59
2022/07/23 02:45:45;;;;;;;8.20;7.60;;;18.70;99.90;;;;;;5048188;28;20044;-60
2022/07/23 02:48:14;;;;;;;8.35;7.47;;;18.70;99.90;;;;;;5048668;28;20172;-58
2022/07/23 02:50:40;;;;;;;8.77;7.88;;;18.60;99.90;;;;;;5047337;28;20112;-60
2022/07/23 02:53:05;;;;;;;8.38;7.57;;;18.50;99.90;;;;;;5048507;28;20116;-59
2022/07/23 02:55:31;;;;;;;8.63;7.72;;;18.30;99.90;;;;;;5048161;28;20591;-58
2022/07/23 02:57:57;;;;;;;11.15;8.30;;;18.30;99.90;;;;;;5048264;28;20110;-60
2022/07/23 03:00:23;;;;;;;9.13;7.80;;;18.10;99.90;;;;;;5049013;28;20602;-58
2022/07/23 03:02:49;;;;;;;9.20;8.25;;;18.00;99.90;;;;;;5047590;28;20048;-58
2022/07/23 03:05:14;;;;;;;9.02;8.23;;;17.90;99.90;;;;;;5047858;28;20057;-58
2022/07/23 03:07:40;;;;;;;9.00;8.30;;;17.70;99.90;;;;;;5046901;28;20091;-59
2022/07/23 03:10:06;;;;;;;9.30;8.40;;;17.70;99.90;;;;;;5048429;28;20127;-59
2022/07/23 03:12:32;;;;;;;9.35;8.55;;;17.60;99.90;;;;;;5046950;28;20089;-59
2022/07/23 03:14:57;;;;;;;10.05;8.77;;;17.50;99.90;;;;;;5048620;28;20684;-58
2022/07/23 03:17:23;;;;;;;9.20;8.35;;;17.40;99.90;;;;;;5047907;28;20147;-59
2022/07/23 03:19:49;;;;;;;9.30;8.52;;;17.30;99.90;;;;;;5047078;28;20029;-59
2022/07/23 03:22:14;;;;;;;9.70;8.90;;;17.30;99.90;;;;;;5048469;28;20033;-59
2022/07/23 03:24:55;;;;;;;10.48;9.40;;;17.20;99.90;;;;;;5048244;28;20051;-60
2022/07/23 03:27:26;;;;;;;9.88;9.07;;;17.20;99.90;;;;;;5048263;28;20040;-57
2022/07/23 03:29:53;;;;;;;10.75;8.93;;;17.20;99.90;;;;;;5047423;28;20025;-57
2022/07/23 03:32:20;;;;;;;10.27;9.32;;;17.20;99.90;;;;;;5048889;28;20117;-59
2022/07/23 03:34:46;;;;;;;10.05;9.32;;;17.20;99.90;;;;;;5050859;28;20033;-58
2022/07/23 03:37:12;;;;;;;12.02;8.80;;;17.20;99.90;;;;;;5051205;28;20366;-59
2022/07/23 03:39:38;;;;;;;11.18;9.40;;;17.30;99.90;;;;;;5051418;28;20464;-56
2022/07/23 03:42:04;;;;;;;9.85;9.13;;;17.40;99.90;;;;;;5051726;28;20029;-57
2022/07/23 03:44:29;;;;;;;10.75;9.57;;;17.40;99.90;;;;;;5051935;28;20021;-58
2022/07/23 03:46:55;;;;;;;9.40;8.70;;;17.40;99.90;;;;;;5050319;28;20017;-57
2022/07/23 03:49:21;;;;;;;10.98;9.95;;;17.40;99.90;;;;;;5052109;28;20432;-59
2022/07/23 03:51:46;;;;;;;11.23;10.10;;;17.40;99.90;;;;;;5051725;28;20225;-58
2022/07/23 03:54:12;;;;;;;10.60;9.63;;;17.40;99.90;;;;;;5051625;28;20041;-59
2022/07/23 03:56:38;;;;;;;10.48;9.40;;;17.30;99.90;;;;;;5050397;28;20124;-59
2022/07/23 03:59:04;;;;;;;10.77;9.77;;;17.40;99.90;;;;;;5051272;28;20025;-59
2022/07/23 04:01:29;;;;;;;13.48;11.20;;;17.40;99.90;;;;;;5033275;28;20524;-57
2022/07/23 04:03:55;;;;;;;10.15;9.25;;;17.40;99.90;;;;;;5050876;28;20559;-57
2022/07/23 04:06:21;;;;;;;10.63;9.70;;;17.40;99.90;;;;;;5050867;28;20051;-59
2022/07/23 04:08:46;;;;;;;10.80;9.85;;;17.40;99.90;;;;;;5050352;28;20068;-58
2022/07/23 04:11:12;;;;;;;10.23;9.38;;;17.50;99.90;;;;;;5051179;28;20552;-57
2022/07/23 04:13:38;;;;;;;8.82;8.13;;;17.50;99.90;;;;;;5050705;28;20041;-59
2022/07/23 04:16:04;;;;;;;11.80;9.25;;;17.50;99.90;;;;;;5051063;28;20416;-57
2022/07/23 04:18:29;;;;;;;9.80;9.00;;;17.60;99.90;;;;;;5050579;28;20044;-57
2022/07/23 04:20:55;;;;;;;10.45;9.40;;;17.60;99.90;;;;;;5051449;28;20029;-59
2022/07/23 04:23:21;;;;;;;10.15;9.43;;;17.70;99.90;;;;;;5050013;28;20033;-57
2022/07/23 04:25:46;;;;;;;9.50;8.73;;;17.60;99.90;;;;;;5050178;28;20104;-57
2022/07/23 04:28:12;;;;;;;14.07;9.05;;;17.70;99.90;;;;;;5050818;28;20481;-58
2022/07/23 04:30:38;;;;;;;10.05;9.25;;;17.70;99.90;;;;;;5049906;28;20029;-58
2022/07/23 04:33:07;;;;;;;10.38;9.57;;;17.70;99.90;;;;;;5050878;28;20111;-59
2022/07/23 04:35:33;;;;;;;9.68;8.88;;;17.70;99.90;;;;;;5050165;28;20029;-57
2022/07/23 04:37:59;;;;;;;10.18;9.05;;;17.60;99.90;;;;;;5050746;28;20530;-57
2022/07/23 04:40:25;;;;;;;11.07;9.20;;;17.60;99.90;;;;;;5031898;28;20037;-58
2022/07/23 04:42:51;;;;;;;9.82;9.13;;;17.60;99.90;;;;;;5050580;28;20029;-58
2022/07/23 04:45:17;;;;;;;10.55;8.50;;;17.70;99.90;;;;;;5050621;28;20048;-57
2022/07/23 04:47:42;;;;;;;8.73;7.93;;;17.80;99.90;;;;;;5049864;28;20036;-57
2022/07/23 04:50:08;;;;;;;8.32;7.72;;;18.00;99.90;;;;;;5050468;28;20045;-59
2022/07/23 04:52:34;;;;;;;9.23;8.43;;;18.30;99.90;;;;;;5050063;28;20053;-58
2022/07/23 04:54:59;;;;;;;9.32;8.48;;;18.60;99.90;;;;;;5050478;28;20120;-57
2022/07/23 04:57:25;;;;;;;9.68;8.88;;;18.90;99.90;;;;;;5050026;28;20036;-57
2022/07/23 04:59:51;;;;;;;9.57;8.77;;;19.20;99.90;;;;;;5049634;28;20032;-59
2022/07/23 05:02:16;;;;;;;8.90;8.05;;;19.40;99.90;;;;;;5049379;28;20392;-57
2022/07/23 05:04:42;;;;;;;10.65;9.25;;;19.60;99.90;;;;;;5050627;28;20746;-58
2022/07/23 05:07:08;;;;;;;8.30;7.57;;;19.80;99.90;;;;;;5048781;28;20029;-59
2022/07/23 05:09:34;;;;;;;10.50;6.70;;;19.90;99.90;;;;;;5049673;28;20064;-58
2022/07/23 05:12:00;;;;;;;8.95;6.93;;;20.00;99.90;;;;;;5051379;28;20384;-58
2022/07/23 05:14:25;;;;;;;6.80;6.25;;;20.00;99.90;;;;;;5049427;28;20033;-58
2022/07/23 05:16:51;;;;;;;9.57;7.47;;;20.00;99.90;;;;;;5048560;28;20025;-57
2022/07/23 05:19:17;;;;;;;7.45;6.28;;;20.10;99.90;;;;;;5049556;28;20140;-58
2022/07/23 05:21:42;;;;;;;7.80;7.10;;;20.20;99.90;;;;;;5050206;28;20052;-58
2022/07/23 05:24:08;;;;;;;8.13;7.35;;;20.30;99.90;;;;;;5041217;28;20378;-58
2022/07/23 05:26:34;;;;;;;6.78;6.25;;;20.50;99.90;;;;;;5049171;28;20033;-57
2022/07/23 05:28:59;;;;;;;5.90;5.30;;;20.80;99.90;;;;;;5049231;28;20032;-58
2022/07/23 05:31:25;;;;;;;9.07;6.07;;;21.10;99.90;;;;;;5049282;28;20029;-60
2022/07/23 05:33:51;;;;;;;6.45;4.78;;;21.40;99.90;;;;;;5049750;28;20032;-59
2022/07/23 05:36:16;;;;;;;7.75;4.85;;;21.70;99.90;;;;;;5049482;28;20312;-59
2022/07/23 05:38:42;;;;;;;5.80;4.70;;;22.30;99.90;;;;;;5031869;28;20033;-58
2022/07/23 05:41:07;;;;;;;6.18;5.68;;;23.20;96.80;;;;;;5047745;28;20095;-60
2022/07/23 05:43:33;;;;;;;7.82;5.60;;;24.20;92.90;;;;;;5049348;28;20056;-59
2022/07/23 05:45:59;;;;;;;8.02;5.28;;;25.20;90.20;;;;;;5049187;28;20063;-59
2022/07/23 05:48:25;;;;;;;5.38;4.90;;;26.10;83.80;;;;;;5049896;28;20033;-58
2022/07/23 05:50:50;;;;;;;5.65;5.05;;;26.70;79.90;;;;;;5049556;28;20025;-59
2022/07/23 05:53:16;;;;;;;5.22;4.82;;;27.60;75.40;;;;;;5048728;28;20370;-59
2022/07/23 05:55:41;;;;;;;7.90;4.50;;;28.30;72.60;;;;;;5048746;28;20037;-59
2022/07/23 05:58:08;;;;;;;4.30;3.90;;;28.80;70.40;;;;;;5048433;28;20060;-60
2022/07/23 06:00:34;;;;;;;5.18;4.47;;;29.00;67.80;;;;;;5049437;28;20037;-58
2022/07/23 06:03:00;;;;;;;5.25;3.78;;;28.70;67.00;;;;;;5048236;28;20053;-59
2022/07/23 06:05:26;;;;;;;4.05;3.67;;;28.10;68.00;;;;;;5048672;28;20067;-58
2022/07/23 06:07:52;;;;;;;3.70;3.40;;;27.90;69.10;;;;;;5046912;28;20025;-59
2022/07/23 06:10:19;;;;;;;3.60;3.30;;;28.20;67.40;;;;;;5048857;28;20032;-58
2022/07/23 06:12:47;;;;;;;3.58;3.25;;;28.60;66.20;;;;;;5049228;28;20071;-58
2022/07/23 06:15:13;;;;;;;4.38;3.47;;;28.90;64.10;;;;;;5049443;28;20021;-59
2022/07/23 06:17:39;;;;;;;6.22;3.30;;;28.70;64.10;;;;;;5048362;28;20071;-59
2022/07/23 06:20:07;;;;;;;4.43;4.03;;;28.30;64.70;;;;;;5047872;28;20107;-59
2022/07/23 06:22:33;;;;;;;4.00;3.60;;;27.70;66.30;;;;;;5048758;28;20499;-59
2022/07/23 06:24:58;;;;;;;5.40;4.68;;;27.30;68.10;;;;;;5048306;28;20037;-59
2022/07/23 06:27:24;;;;;;;5.35;4.93;;;26.80;66.80;;;;;;5048794;28;20024;-58
2022/07/23 06:29:50;;;;;;;4.97;4.50;;;26.40;67.80;;;;;;5047914;28;20029;-59
2022/07/23 06:32:15;;;;;;;4.82;4.35;;;26.20;70.10;;;;;;5048592;28;20029;-58
2022/07/23 06:34:41;;;;;;;6.40;4.88;;;26.00;71.20;;;;;;5047969;28;20183;-59
2022/07/23 06:37:07;;;;;;;6.68;4.18;;;26.10;71.10;;;;;;5048548;28;20411;-59
2022/07/23 06:39:33;;;;;;;4.47;4.18;;;26.20;71.40;;;;;;5031519;28;20024;-59
2022/07/23 06:41:58;;;;;;;4.30;4.00;;;26.50;72.50;;;;;;5047881;28;20033;-59
2022/07/23 06:44:24;;;;;;;6.00;4.20;;;27.40;70.70;;;;;;5049048;28;20084;-60
2022/07/23 06:46:50;;;;;;;4.60;3.83;;;28.30;66.90;;;;;;5047769;28;20446;-58
2022/07/23 06:49:15;;;;;;;4.22;3.80;;;28.60;66.00;;;;;;5048647;28;20362;-59
2022/07/23 06:51:41;;;;;;;4.82;3.65;;;28.70;64.40;;;;;;5048899;28;20025;-59
2022/07/23 06:54:07;;;;;;;5.22;4.07;;;29.40;64.30;;;;;;5046952;28;20055;-59
2022/07/23 06:56:32;;;;;;;4.70;4.18;;;30.30;62.20;;;;;;5045454;28;20087;-60
2022/07/23 06:58:58;;;;;;;4.88;4.43;;;31.00;60.10;;;;;;5047346;28;20079;-58
2022/07/23 07:01:24;;;;;;;4.28;3.97;;;30.90;58.90;;;;;;5046680;28;20040;-59
2022/07/23 07:03:49;;;;;;;4.80;4.22;;;30.50;59.70;;;;;;5045712;28;20460;-58
2022/07/23 07:06:15;;;;;;;5.07;4.38;;;30.10;61.40;;;;;;5047033;28;20025;-60
2022/07/23 07:08:42;;;;;;;6.22;4.88;;;30.30;61.10;;;;;;5050295;28;20025;-59
2022/07/23 07:11:08;;;;;;;5.30;4.85;;;31.00;58.10;;;;;;5052931;28;20095;-59
2022/07/23 07:13:34;;;;;;;12.82;5.53;;;32.60;55.00;;;;;;5052148;28;20029;-60
2022/07/23 07:15:59;;;;;;;6.47;4.88;;;33.60;51.90;;;;;;5052364;28;20029;-59
2022/07/23 07:18:25;;;;;;;5.97;5.38;;;33.80;50.70;;;;;;5052572;28;20063;-59
2022/07/23 07:20:51;;;;;;;4.82;4.32;;;34.40;49.90;;;;;;5050660;28;20037;-59
2022/07/23 07:23:16;;;;;;;7.22;5.20;;;35.10;49.30;;;;;;5052331;28;20025;-59
2022/07/23 07:25:42;;;;;;;5.43;4.95;;;36.20;46.50;;;;;;5051354;28;20102;-59
2022/07/23 07:28:08;;;;;;;6.10;4.50;;;37.20;44.70;;;;;;5051794;28;20033;-60
2022/07/23 07:30:34;;;;;;;4.82;4.35;;;37.80;43.80;;;;;;5050799;28;20037;-59
2022/07/23 07:33:00;;;;;;;6.90;4.15;;;38.50;42.90;;;;;;5049840;28;20044;-61
2022/07/23 07:35:25;;;;;;;4.38;3.97;;;39.10;41.10;;;;;;5050800;28;20021;-59
2022/07/23 07:37:51;;;;;;;7.13;5.85;;;39.30;40.70;;;;;;5051305;28;20025;-59
2022/07/23 07:40:17;;;;;;;4.45;4.15;;;39.00;40.70;;;;;;5051515;28;20029;-59
2022/07/23 07:42:50;;;;;;;4.60;4.28;;;38.00;41.70;;;;;;5050206;28;20064;-59
2022/07/23 07:45:16;;;;;;;7.63;4.43;;;37.10;42.80;;;;;;5052315;28;20111;-59
2022/07/23 07:47:42;;;;;;;7.80;5.13;;;36.20;44.70;;;;;;5050703;28;20072;-59
2022/07/23 07:50:09;;;;;;;5.03;4.53;;;35.30;46.40;;;;;;5050619;28;20509;-59
2022/07/23 07:52:38;;;;;;;5.22;4.80;;;34.30;47.70;;;;;;5048027;28;20033;-59
2022/07/23 07:55:06;;;;;;;5.93;5.32;;;33.60;49.50;;;;;;5050609;28;20044;-59
2022/07/23 07:57:32;;;;;;;7.05;5.15;;;33.00;50.70;;;;;;5050666;28;20057;-59
2022/07/23 07:59:58;;;;;;;6.55;5.28;;;32.40;51.90;;;;;;5048388;28;20075;-59
2022/07/23 08:02:23;;;;;;;4.75;4.32;;;31.60;52.80;;;;;;5051849;28;20026;-58
2022/07/23 08:04:49;;;;;;;6.30;5.10;;;31.00;54.40;;;;;;5050378;28;20096;-60
2022/07/23 08:07:15;;;;;;;5.20;4.50;;;30.40;55.40;;;;;;5051935;28;20044;-58
2022/07/23 08:09:41;;;;;;;6.10;5.50;;;29.80;56.60;;;;;;5049494;28;20156;-59
2022/07/23 08:12:07;;;;;;;5.38;4.88;;;29.30;58.30;;;;;;5051864;28;20104;-59
2022/07/23 08:14:32;;;;;;;5.55;5.05;;;28.80;59.10;;;;;;5051493;28;20044;-59
2022/07/23 08:16:58;;;;;;;6.68;4.95;;;28.50;59.90;;;;;;5048650;28;20282;-59
2022/07/23 08:19:24;;;;;;;5.57;5.18;;;28.10;61.50;;;;;;5048673;28;20495;-58
2022/07/23 08:21:49;;;;;;;6.72;6.13;;;27.70;62.40;;;;;;5049717;28;20462;-58
2022/07/23 08:24:15;;;;;;;5.90;5.47;;;27.50;62.70;;;;;;5051435;28;20476;-58
2022/07/23 08:26:41;;;;;;;9.23;5.47;;;27.20;63.80;;;;;;5050653;28;20112;-59
2022/07/23 08:29:07;;;;;;;5.93;5.40;;;26.80;64.80;;;;;;5048776;28;20025;-59
2022/07/23 08:31:33;;;;;;;6.63;5.70;;;26.60;65.20;;;;;;5050899;28;20091;-59
2022/07/23 08:33:59;;;;;;;6.63;6.13;;;26.50;66.20;;;;;;5049081;28;20029;-59
2022/07/23 08:36:27;;;;;;;5.93;5.53;;;26.40;66.80;;;;;;5049496;28;20105;-58
2022/07/23 08:38:54;;;;;;;6.78;6.18;;;26.70;66.40;;;;;;5049990;28;20396;-58
2022/07/23 08:41:20;;;;;;;5.60;5.10;;;27.10;65.10;;;;;;5050266;28;20374;-59
2022/07/23 08:43:46;;;;;;;6.97;6.22;;;27.60;64.30;;;;;;5049601;28;20033;-59
2022/07/23 08:46:13;;;;;;;6.72;5.72;;;28.00;62.70;;;;;;5047358;28;20048;-58
2022/07/23 08:48:39;;;;;;;12.70;5.82;;;28.60;61.10;;;;;;5049103;28;20473;-59
2022/07/23 08:51:06;;;;;;;6.72;6.07;;;28.80;61.10;;;;;;5050120;28;20075;-59
2022/07/23 08:53:35;;;;;;;6.35;5.68;;;28.70;60.30;;;;;;5050571;28;20492;-58
2022/07/23 08:56:03;;;;;;;6.03;5.45;;;28.40;60.70;;;;;;5048717;28;20040;-58
2022/07/23 08:58:29;;;;;;;6.13;5.50;;;28.00;61.80;;;;;;5050324;28;20029;-58
2022/07/23 09:00:56;;;;;;;6.70;6.10;;;27.70;63.70;;;;;;5048801;28;20387;-58
2022/07/23 09:03:32;;;;;;;8.10;5.90;;;27.30;66.90;;;;;;5047315;28;20104;-58
2022/07/23 09:06:00;;;;;;;9.80;6.88;;;27.00;71.40;;;;;;5047754;28;20043;-58
2022/07/23 09:08:41;;;;;;;9.90;6.88;;;26.80;73.80;;;;;;5047416;28;20039;-59
2022/07/23 09:11:17;;;;;;;7.17;6.47;;;26.60;72.90;;;;;;5050694;28;20107;-58
2022/07/23 09:13:46;;;;;;;6.85;6.25;;;26.80;72.40;;;;;;5048369;28;20036;-58
2022/07/23 09:16:18;;;;;;;6.72;6.10;;;27.10;71.50;;;;;;5049462;28;20425;-59
2022/07/23 09:19:05;;;;;;;6.88;6.30;;;27.40;70.70;;;;;;5048607;28;20027;-59
2022/07/23 09:21:37;;;;;;;6.53;5.75;;;27.80;69.30;;;;;;5049802;28;20084;-59
2022/07/23 09:24:07;;;;;;;6.25;5.63;;;28.40;65.50;;;;;;5048819;28;20650;-59
2022/07/23 09:26:47;;;;;;;6.78;5.78;;;29.10;62.40;;;;;;5048201;28;20032;-59
2022/07/23 09:29:24;;;;;;;6.40;5.82;;;29.70;61.60;;;;;;5041229;28;20120;-60
2022/07/23 09:31:58;;;;;;;5.95;5.45;;;30.60;58.80;;;;;;5047742;28;20024;-60
2022/07/23 09:34:30;;;;;;;5.78;5.35;;;32.00;56.70;;;;;;5049104;28;20583;-59
2022/07/23 09:36:58;;;;;;;13.02;5.80;;;33.60;54.10;;;;;;5046257;28;20080;-59
2022/07/23 09:39:28;;;;;;;6.35;5.30;;;35.20;49.60;;;;;;5046482;28;20335;-59
2022/07/23 09:41:54;;;;;;;5.28;4.78;;;36.60;48.40;;;;;;5045656;28;20036;-61
2022/07/23 09:44:20;;;;;;;6.88;4.38;;;38.00;43.60;;;;;;5048001;28;20089;-60
2022/07/23 09:46:50;;;;;;;5.95;4.38;;;38.60;42.40;;;;;;5047539;28;20018;-60
2022/07/23 09:49:20;;;;;;;;;;;38.40;43.60;;;;;;5046871;28;20040;-61
2022/07/23 09:51:47;;;;;;;6.03;5.20;;;38.00;42.10;;;;;;5046973;28;19944;-60
2022/07/23 09:54:26;;;;;;;4.88;4.47;;;37.80;43.30;;;;;;5048730;28;20025;-60
2022/07/23 09:56:55;;;;;;;4.57;4.07;;;38.10;43.50;;;;;;5048863;28;20122;-60
2022/07/23 09:59:34;;;;;;;4.60;4.30;;;38.60;42.40;;;;;;5047875;28;20024;-61
2022/07/23 10:02:00;;;;;;;5.22;4.22;;;38.90;41.10;;;;;;5047389;28;20280;-60
2022/07/23 10:04:28;;;;;;;13.93;5.00;;;39.00;40.50;;;;;;5046740;28;20382;-60
2022/07/23 10:06:57;;;;;;;6.82;4.95;;;39.40;41.00;;;;;;5047103;28;20217;-60
2022/07/23 10:09:26;;;;;;;10.63;4.72;;;38.80;40.60;;;;;;5047734;28;20022;-60
2022/07/23 10:12:05;;;;;;;4.10;3.80;;;39.30;41.70;;;;;;5047701;28;20029;-60
2022/07/23 10:14:34;;;;;;;6.93;4.10;;;40.40;40.30;;;;;;5047574;28;20068;-60
2022/07/23 10:17:02;;;;;;;4.30;4.00;;;41.10;38.20;;;;;;5047699;28;20572;-60
2022/07/23 10:19:28;;;;;;;5.05;4.30;;;40.60;38.20;;;;;;5047711;28;20060;-61
2022/07/23 10:22:14;;;;;;;6.03;4.82;;;39.70;39.00;;;;;;5047453;28;20075;-60
2022/07/23 10:25:04;;;;;;;5.65;4.68;;;37.80;40.90;;;;;;5047241;28;20017;-60
2022/07/23 10:27:48;;;;;;;5.00;4.53;;;36.20;44.10;;;;;;5047577;28;20017;-60
2022/07/23 10:30:34;;;;;;;6.70;4.50;;;35.40;46.90;;;;;;5040740;28;20401;-60
2022/07/23 10:33:21;;;;;;;5.22;4.55;;;35.00;47.10;;;;;;5047994;28;20039;-60
2022/07/23 10:35:57;;;;;;;6.43;3.78;;;35.00;47.80;;;;;;5047682;28;20029;-60
2022/07/23 10:38:35;;;;;;;4.32;3.92;;;35.00;47.70;;;;;;5047375;28;20033;-60
2022/07/23 10:41:03;;;;;;;12.48;4.10;;;35.10;46.80;;;;;;5045306;28;20116;-60
2022/07/23 10:43:30;;;;;;;4.00;3.67;;;35.30;46.40;;;;;;5047858;28;20055;-60
2022/07/23 10:46:16;;;;;;;16.70;4.32;;;35.30;46.30;;;;;;5046358;28;20033;-61
2022/07/23 10:48:42;;;;;;;7.45;4.03;;;35.20;46.50;;;;;;5047167;28;20481;-60
2022/07/23 10:51:17;;;;;;;5.93;4.20;;;34.90;46.50;;;;;;5047098;28;20091;-60
2022/07/23 10:54:01;;;;;;;4.90;4.35;;;34.50;47.80;;;;;;5047642;28;20041;-61
2022/07/23 10:56:54;;;;;;;4.68;4.28;;;34.90;46.90;;;;;;5046646;28;20060;-60
2022/07/23 10:59:20;;;;;;;5.03;4.20;;;35.50;45.40;;;;;;5044496;28;20040;-60
2022/07/23 11:01:46;;;;;;;5.28;3.92;;;36.20;45.60;;;;;;5045608;28;20052;-60
2022/07/23 11:04:13;;;;;;;5.57;3.70;;;36.00;45.00;;;;;;5046267;28;20051;-59
2022/07/23 11:06:50;;;;;;;4.85;3.80;;;36.10;44.80;;;;;;5044743;28;20087;-61
2022/07/23 11:09:28;;;;;;;4.30;4.00;;;36.40;45.10;;;;;;5039786;28;20502;-60
2022/07/23 11:12:13;;;;;;;4.50;3.88;;;36.30;44.10;;;;;;5047878;28;20036;-60
2022/07/23 11:14:57;;;;;;;4.40;3.90;;;35.80;45.60;;;;;;5046658;28;20026;-61
2022/07/23 11:17:24;;;;;;;7.55;3.90;;;35.20;47.00;;;;;;5027772;28;20040;-60
2022/07/23 11:20:09;;;;;;;11.88;3.58;;;34.60;47.60;;;;;;5044948;28;20443;-60
2022/07/23 11:22:39;;;;;;;4.43;4.03;;;33.90;48.30;;;;;;5046151;28;20087;-60
2022/07/23 11:25:05;;;;;;;;;;;33.10;49.90;;;;;;5046872;28;20083;-60
2022/07/23 11:27:45;;;;;;;4.28;3.97;;;32.70;50.90;;;;;;5047900;28;19908;-59
2022/07/23 11:30:37;;;;;;;5.43;3.33;;;32.70;51.60;;;;;;5045252;28;20055;-60
2022/07/23 11:33:08;;;;;;;6.72;4.15;;;32.90;52.10;;;;;;5047321;28;20124;-60
2022/07/23 11:35:36;;;;;;;7.78;5.70;;;33.20;50.90;;;;;;5046593;28;20183;-59
2022/07/23 11:38:07;;;;;;;4.43;4.03;;;33.50;50.10;;;;;;5047434;28;20036;-60
2022/07/23 11:40:34;;;;;;;5.75;4.35;;;33.40;50.40;;;;;;5046798;28;20136;-59
2022/07/23 11:43:03;;;;;;;4.20;3.78;;;33.50;51.00;;;;;;5046286;28;20084;-60
2022/07/23 11:45:37;;;;;;;7.07;4.30;;;33.60;50.60;;;;;;5048424;28;20025;-60
2022/07/23 11:48:06;;;;;;;6.10;4.10;;;33.70;49.90;;;;;;5046626;28;20112;-60
2022/07/23 11:50:32;;;;;;;9.40;3.67;;;33.60;49.80;;;;;;5046274;28;20036;-60
2022/07/23 11:52:58;;;;;;;4.47;4.07;;;33.70;49.80;;;;;;5047487;28;20021;-59
2022/07/23 11:55:24;;;;;;;7.43;4.20;;;33.70;50.00;;;;;;5033885;28;20036;-60
2022/07/23 11:57:52;;;;;;;5.53;4.60;;;33.50;49.50;;;;;;5050765;28;20021;-60
2022/07/23 12:00:24;;;;;;;6.22;4.20;;;33.20;50.10;;;;;;5050462;28;20025;-60
2022/07/23 12:02:53;;;;;;;6.82;4.95;;;32.90;50.30;;;;;;5049984;28;20033;-60
2022/07/23 12:05:23;;;;;;;21.08;5.60;;;32.80;50.60;;;;;;5049242;28;20040;-60
2022/07/23 12:07:50;;;;;;;5.05;4.50;;;32.90;51.20;;;;;;5029855;28;20365;-60
2022/07/23 12:10:29;;;;;;;4.80;4.47;;;33.10;50.50;;;;;;5049476;28;20028;-60
2022/07/23 12:12:56;;;;;;;5.50;3.95;;;33.30;49.40;;;;;;5050408;28;20032;-60
2022/07/23 12:15:32;;;;;;;4.25;3.70;;;33.40;49.60;;;;;;5049304;28;20036;-59
2022/07/23 12:18:00;;;;;;;5.10;3.85;;;33.60;49.30;;;;;;5049961;28;20111;-60
2022/07/23 12:20:28;;;;;;;4.32;4.03;;;33.70;49.80;;;;;;5049950;28;20036;-60
2022/07/23 12:22:59;;;;;;;4.43;4.03;;;34.00;49.80;;;;;;5049474;28;20037;-60
2022/07/23 12:25:31;;;;;;;4.97;4.57;;;34.20;47.90;;;;;;5048227;28;20025;-60
2022/07/23 12:28:07;;;;;;;4.68;4.00;;;34.20;48.10;;;;;;5048144;28;20389;-61
2022/07/23 12:30:59;;;;;;;4.82;4.25;;;34.20;47.90;;;;;;5051012;28;20025;-59
2022/07/23 12:33:29;;;;;;;4.60;4.30;;;34.00;47.80;;;;;;5047231;28;20048;-60
2022/07/23 12:35:59;;;;;;;6.13;4.60;;;33.80;48.70;;;;;;5050222;28;20557;-60
2022/07/23 12:38:28;;;;;;;4.47;4.07;;;33.70;48.40;;;;;;5049420;28;20282;-60
2022/07/23 12:40:56;;;;;;;5.05;4.38;;;34.00;47.90;;;;;;5049811;28;20037;-59
2022/07/23 12:43:25;;;;;;;4.90;4.43;;;34.40;47.50;;;;;;5050402;28;20397;-60
2022/07/23 12:45:53;;;;;;;5.45;4.57;;;34.60;46.40;;;;;;5047916;28;20420;-59
2022/07/23 12:48:32;;;;;;;4.40;3.88;;;34.90;45.50;;;;;;5049936;28;20068;-59